Guymon, Oklahoma
Current Conditions -  °F | °C
As of 6:53 PM on Sunday 23 Nov 2014 (Local Time) from KGUY Reporting Station
Clear Clear  
Wind Chill: 37°   Ceiling: Unl
Heat Index: 42°   Visibility: 10mi
Dew Point: 13°   Wind: 8mph
Humidity: 31%   Direction: 310°NW
Pressure: 29.79"   Gusts: NA
Location:  36.68°N, 101.48°W
Report Text: KGUY 240053Z AUTO 31007KT 10SM CLR 06/M11 A2979 RMK AO2 SLP079 T00561106
Loading
Personal Weather Stations






























Interactive Weather Map New forecast layout! Learn more

10-Day Weather Forecast

Advertisements
Track Severe Weather on mobile